createdAt,value
2019-01-20T00:01:15.330Z,20.53
2019-01-20T00:03:44.708Z,20.31
2019-01-20T00:06:14.076Z,20.27
2019-01-20T00:08:43.573Z,20.26
2019-01-20T00:11:16.735Z,20.18
2019-01-20T00:13:44.081Z,20.04
2019-01-20T00:16:13.485Z,19.93
2019-01-20T00:18:42.878Z,19.68
2019-01-20T00:21:12.502Z,19.48
2019-01-20T00:23:41.954Z,19.38
2019-01-20T00:26:11.315Z,19.21
2019-01-20T00:28:40.753Z,19.03
2019-01-20T00:31:10.168Z,18.86
2019-01-20T00:33:39.562Z,18.73
2019-01-20T00:36:09.060Z,18.61
2019-01-20T00:38:38.433Z,18.43
2019-01-20T00:41:07.804Z,18.39
2019-01-20T00:43:37.230Z,18.18
2019-01-20T00:46:06.694Z,18.17
2019-01-20T00:48:36.048Z,18.10
2019-01-20T00:51:05.666Z,18.11
2019-01-20T00:53:35.032Z,18.03
2019-01-20T00:56:04.698Z,17.95
2019-01-20T00:58:34.126Z,17.89
2019-01-20T01:01:03.674Z,17.83
2019-01-20T01:03:33.091Z,17.74
2019-01-20T01:06:03.772Z,17.74
2019-01-20T01:08:33.132Z,17.68
2019-01-20T01:11:02.841Z,17.60
2019-01-20T01:13:32.219Z,17.51
2019-01-20T01:16:01.596Z,17.46
2019-01-20T01:18:30.989Z,17.43
2019-01-20T01:21:00.348Z,17.40
2019-01-20T01:23:29.712Z,17.35
2019-01-20T01:25:59.191Z,17.26
2019-01-20T01:28:28.527Z,17.20
2019-01-20T01:30:57.906Z,17.18
2019-01-20T01:33:27.306Z,17.12
2019-01-20T01:35:56.685Z,17.09
2019-01-20T01:38:26.062Z,17.04
2019-01-20T01:40:55.463Z,17.03
2019-01-20T01:43:24.864Z,16.98
2019-01-20T01:45:54.249Z,16.87
2019-01-20T01:48:23.725Z,16.83
2019-01-20T01:50:53.107Z,16.78
2019-01-20T01:53:22.458Z,16.78
2019-01-20T01:55:51.888Z,16.74
2019-01-20T01:58:22.179Z,16.72
2019-01-20T02:00:51.539Z,16.74
2019-01-20T02:03:20.952Z,16.63
2019-01-20T02:05:50.379Z,16.56
2019-01-20T02:08:19.719Z,16.55
2019-01-20T02:10:49.103Z,16.54
2019-01-20T02:13:18.463Z,16.48
2019-01-20T02:15:47.861Z,16.37
2019-01-20T02:18:17.212Z,16.32
2019-01-20T02:20:46.569Z,16.24
2019-01-20T02:23:16.050Z,16.18
2019-01-20T02:25:45.400Z,16.13
2019-01-20T02:28:14.756Z,16.10
2019-01-20T02:30:44.117Z,16.10
2019-01-20T02:33:13.524Z,16.08
2019-01-20T02:35:42.934Z,15.94
2019-01-20T02:38:12.297Z,15.92
2019-01-20T02:40:41.654Z,15.90
2019-01-20T02:43:11.044Z,15.86
2019-01-20T02:45:40.476Z,15.85
2019-01-20T02:48:09.825Z,15.79
2019-01-20T02:50:39.265Z,15.77
2019-01-20T02:53:08.810Z,15.70
2019-01-20T02:55:38.256Z,15.69
2019-01-20T02:58:07.922Z,15.67
2019-01-20T03:00:38.194Z,15.57
2019-01-20T03:03:07.535Z,15.56
2019-01-20T03:05:36.935Z,15.51
2019-01-20T03:08:06.394Z,15.44
2019-01-20T03:10:35.795Z,16.35
2019-01-20T03:13:05.367Z,16.87
2019-01-20T03:15:34.824Z,17.58
2019-01-20T03:18:04.299Z,18.58
2019-01-20T03:20:33.728Z,19.28
2019-01-20T03:23:03.120Z,19.56
2019-01-20T03:25:32.505Z,19.62
2019-01-20T03:28:01.961Z,19.67
2019-01-20T03:30:31.331Z,19.73
2019-01-20T03:33:00.723Z,19.74
2019-01-20T03:35:30.151Z,19.79
2019-01-20T03:37:59.519Z,19.70
2019-01-20T03:40:28.907Z,19.67
2019-01-20T03:42:58.308Z,19.55
2019-01-20T03:45:27.713Z,19.47
2019-01-20T03:47:57.104Z,19.43
2019-01-20T03:50:26.474Z,19.35
2019-01-20T03:52:55.848Z,19.28
2019-01-20T03:55:25.190Z,19.16
2019-01-20T03:57:54.612Z,19.11
2019-01-20T04:00:25.177Z,19.05
2019-01-20T04:03:00.146Z,18.96
2019-01-20T04:05:29.514Z,18.86
2019-01-20T04:07:58.935Z,18.78
2019-01-20T04:10:28.363Z,18.70
2019-01-20T04:12:57.684Z,18.59
2019-01-20T04:15:27.128Z,18.61
2019-01-20T04:17:56.578Z,18.49
2019-01-20T04:20:25.925Z,18.45
2019-01-20T04:22:55.284Z,18.35
2019-01-20T04:25:24.679Z,18.29
2019-01-20T04:27:54.047Z,18.15
2019-01-20T04:30:23.416Z,18.09
2019-01-20T04:32:52.819Z,18.06
2019-01-20T04:35:22.220Z,17.97
2019-01-20T04:37:51.561Z,17.88
2019-01-20T04:40:22.843Z,17.81
2019-01-20T04:42:52.170Z,17.76
2019-01-20T04:45:21.606Z,17.67
2019-01-20T04:47:50.989Z,17.68
2019-01-20T04:50:22.372Z,17.53
2019-01-20T04:52:52.206Z,17.46
2019-01-20T04:55:21.669Z,17.43
2019-01-20T04:57:52.890Z,17.46
2019-01-20T05:00:27.241Z,17.42
2019-01-20T05:02:56.701Z,17.34
2019-01-20T05:05:26.129Z,17.22
2019-01-20T05:07:55.552Z,17.13
2019-01-20T05:10:25.043Z,17.06
2019-01-20T05:12:54.435Z,17.02
2019-01-20T05:15:25.332Z,16.96
2019-01-20T05:17:54.702Z,16.89
2019-01-20T05:20:24.288Z,16.89
2019-01-20T05:22:53.698Z,16.86
2019-01-20T05:25:23.084Z,16.80
2019-01-20T05:27:52.437Z,16.71
2019-01-20T05:30:24.080Z,16.65
2019-01-20T05:32:53.465Z,16.63
2019-01-20T05:35:23.020Z,16.65
2019-01-20T05:37:52.476Z,16.63
2019-01-20T05:40:22.236Z,16.56
2019-01-20T05:42:51.638Z,16.51
2019-01-20T05:45:23.135Z,16.47
2019-01-20T05:47:52.482Z,16.45
2019-01-20T05:50:21.838Z,16.45
2019-01-20T05:52:51.236Z,16.38
2019-01-20T05:55:20.690Z,16.36
2019-01-20T05:57:50.026Z,16.35
2019-01-20T06:00:25.125Z,16.29
2019-01-20T06:02:54.481Z,16.26
2019-01-20T06:05:24.807Z,16.29
2019-01-20T06:07:54.290Z,16.29
2019-01-20T06:10:23.661Z,16.36
2019-01-20T06:12:54.124Z,16.34
2019-01-20T06:15:25.131Z,16.32
2019-01-20T06:17:54.523Z,16.32
2019-01-20T06:20:23.967Z,16.26
2019-01-20T06:22:53.336Z,16.14
2019-01-20T06:25:22.759Z,16.12
2019-01-20T06:27:52.109Z,16.18
2019-01-20T06:30:40.552Z,16.17
2019-01-20T06:33:09.982Z,16.07
2019-01-20T06:35:39.539Z,16.09
2019-01-20T06:38:08.961Z,15.98
2019-01-20T06:40:38.392Z,15.95
2019-01-20T06:43:07.821Z,15.93
2019-01-20T06:45:37.166Z,15.86
2019-01-20T06:48:06.499Z,15.81
2019-01-20T06:50:35.914Z,15.81
2019-01-20T06:53:05.251Z,15.91
2019-01-20T06:55:34.702Z,15.76
2019-01-20T06:58:04.301Z,15.81
2019-01-20T07:00:33.658Z,15.71
2019-01-20T07:03:03.066Z,15.71
2019-01-20T07:05:32.460Z,15.76
2019-01-20T07:08:01.925Z,15.72
2019-01-20T07:10:32.349Z,15.68
2019-01-20T07:13:08.866Z,15.88
2019-01-20T07:15:32.904Z,16.13
2019-01-20T07:18:02.278Z,16.26
2019-01-20T07:20:31.700Z,16.24
2019-01-20T07:23:01.101Z,16.24
2019-01-20T07:25:30.445Z,16.14
2019-01-20T07:27:59.922Z,16.24
2019-01-20T07:30:29.311Z,16.25
2019-01-20T07:32:58.664Z,17.23
2019-01-20T07:35:28.103Z,17.65
2019-01-20T07:37:57.465Z,17.44
2019-01-20T07:40:26.816Z,17.33
2019-01-20T07:42:56.412Z,17.09
2019-01-20T07:45:25.766Z,16.99
2019-01-20T07:47:55.239Z,16.95
2019-01-20T07:50:26.704Z,16.73
2019-01-20T07:52:56.097Z,16.69
2019-01-20T07:55:25.517Z,16.51
2019-01-20T07:57:54.958Z,16.43
2019-01-20T08:00:25.831Z,16.24
2019-01-20T08:02:55.269Z,16.13
2019-01-20T08:05:24.804Z,16.02
2019-01-20T08:07:54.188Z,15.89
2019-01-20T08:10:26.005Z,15.83
2019-01-20T08:12:55.588Z,15.71
2019-01-20T08:15:25.188Z,15.61
2019-01-20T08:17:54.656Z,15.52
2019-01-20T08:20:24.811Z,15.52
2019-01-20T08:22:54.183Z,15.58
2019-01-20T08:25:23.710Z,15.45
2019-01-20T08:27:53.318Z,15.36
2019-01-20T08:30:24.715Z,15.27
2019-01-20T08:32:54.171Z,15.20
2019-01-20T08:35:23.618Z,15.14
2019-01-20T08:37:52.964Z,15.07
2019-01-20T08:40:24.584Z,14.97
2019-01-20T08:42:54.006Z,15.05
2019-01-20T08:45:37.692Z,14.87
2019-01-20T08:48:12.661Z,14.90
2019-01-20T08:50:42.095Z,14.84
2019-01-20T08:53:11.470Z,14.87
2019-01-20T08:55:40.953Z,14.84
2019-01-20T08:58:10.279Z,14.76
2019-01-20T09:00:40.704Z,14.74
2019-01-20T09:03:10.187Z,14.72
2019-01-20T09:05:39.729Z,14.76
2019-01-20T09:08:09.160Z,14.70
2019-01-20T09:10:38.638Z,14.66
2019-01-20T09:13:09.774Z,14.63
2019-01-20T09:15:39.220Z,14.64
2019-01-20T09:18:08.897Z,14.66
2019-01-20T09:20:38.816Z,14.70
2019-01-20T09:23:08.189Z,14.74
2019-01-20T09:25:37.587Z,14.71
2019-01-20T09:28:07.104Z,14.72
2019-01-20T09:30:38.075Z,14.66
2019-01-20T09:33:07.644Z,14.62
2019-01-20T09:35:37.068Z,14.59
2019-01-20T09:38:06.723Z,14.73
2019-01-20T09:40:36.096Z,14.72
2019-01-20T09:43:05.713Z,14.63
2019-01-20T09:45:35.683Z,14.57
2019-01-20T09:48:05.700Z,14.53
2019-01-20T09:50:35.162Z,14.48
2019-01-20T09:53:04.712Z,14.45
2019-01-20T09:55:34.261Z,14.41
2019-01-20T09:58:03.619Z,14.48
2019-01-20T10:00:33.512Z,14.48
2019-01-20T10:03:02.989Z,14.47
2019-01-20T10:05:32.374Z,14.47
2019-01-20T10:08:01.818Z,14.59
2019-01-20T10:10:31.351Z,14.53
2019-01-20T10:13:00.760Z,14.45
2019-01-20T10:15:30.193Z,14.41
2019-01-20T10:17:59.603Z,14.34
2019-01-20T10:20:30.759Z,14.34
2019-01-20T10:23:00.564Z,14.41
2019-01-20T10:25:29.996Z,14.37
2019-01-20T10:27:59.563Z,14.40
2019-01-20T10:30:31.328Z,14.38
2019-01-20T10:33:00.970Z,14.35
2019-01-20T10:35:35.628Z,14.31
2019-01-20T10:38:06.778Z,14.27
2019-01-20T10:40:36.319Z,14.60
2019-01-20T10:43:06.560Z,15.37
2019-01-20T10:45:35.969Z,16.28
2019-01-20T10:48:05.762Z,16.90
2019-01-20T10:50:35.165Z,17.35
2019-01-20T10:53:04.610Z,17.54
2019-01-20T10:55:34.256Z,17.66
2019-01-20T10:58:03.665Z,17.60
2019-01-20T11:00:36.379Z,17.47
2019-01-20T11:03:06.252Z,17.32
2019-01-20T11:05:35.689Z,17.22
2019-01-20T11:08:05.396Z,17.03
2019-01-20T11:10:35.096Z,16.95
2019-01-20T11:13:04.880Z,16.82
2019-01-20T11:15:34.333Z,16.67
2019-01-20T11:18:03.947Z,16.59
2019-01-20T11:20:33.392Z,16.49
2019-01-20T11:23:02.976Z,16.41
2019-01-20T11:25:35.088Z,16.26
2019-01-20T11:28:04.737Z,16.29
2019-01-20T11:30:34.326Z,16.56
2019-01-20T11:33:03.906Z,17.04
2019-01-20T11:35:33.314Z,17.44
2019-01-20T11:38:03.883Z,17.92
2019-01-20T11:40:33.296Z,18.21
2019-01-20T11:43:02.682Z,18.61
2019-01-20T11:45:32.897Z,19.01
2019-01-20T11:48:02.437Z,19.31
2019-01-20T11:50:31.913Z,20.47
2019-01-20T11:53:01.496Z,21.93
2019-01-20T11:55:30.938Z,23.15
2019-01-20T11:58:00.352Z,23.83
2019-01-20T12:00:35.319Z,24.64
2019-01-20T12:03:05.385Z,25.36
2019-01-20T12:05:36.329Z,25.86
2019-01-20T12:08:06.264Z,26.25
2019-01-20T12:10:35.766Z,26.76
2019-01-20T12:13:07.526Z,27.14
2019-01-20T12:15:37.310Z,27.60
2019-01-20T12:18:06.785Z,27.90
2019-01-20T12:20:36.430Z,28.18
2019-01-20T12:23:06.392Z,28.48
2019-01-20T12:25:36.061Z,28.68
2019-01-20T12:28:05.590Z,28.92
2019-01-20T12:30:36.826Z,29.12
2019-01-20T12:33:06.817Z,29.23
2019-01-20T12:35:36.357Z,29.43
2019-01-20T12:38:06.079Z,29.59
2019-01-20T12:40:38.518Z,29.71
2019-01-20T12:43:08.086Z,29.88
2019-01-20T12:45:37.554Z,29.95
2019-01-20T12:48:07.367Z,30.10
2019-01-20T12:50:36.760Z,30.12
2019-01-20T12:53:06.253Z,30.21
2019-01-20T12:55:35.878Z,30.29
2019-01-20T12:58:05.726Z,30.32
2019-01-20T13:00:35.198Z,30.35
2019-01-20T13:03:05.189Z,30.42
2019-01-20T13:05:34.526Z,30.48
2019-01-20T13:08:04.038Z,30.47
2019-01-20T13:10:33.752Z,30.49
2019-01-20T13:13:03.157Z,30.51
2019-01-20T13:15:32.619Z,30.49
2019-01-20T13:18:02.008Z,30.52
2019-01-20T13:20:31.397Z,30.50
2019-01-20T13:23:00.882Z,30.52
2019-01-20T13:25:31.599Z,30.53
2019-01-20T13:28:01.296Z,30.50
2019-01-20T13:30:30.983Z,30.48
2019-01-20T13:33:00.493Z,30.49
2019-01-20T13:35:30.389Z,30.49
2019-01-20T13:38:06.109Z,30.48
2019-01-20T13:40:41.659Z,30.45
2019-01-20T13:43:11.071Z,30.98
2019-01-20T13:45:40.475Z,31.72
2019-01-20T13:48:11.472Z,32.37
2019-01-20T13:50:41.101Z,32.75
2019-01-20T13:53:10.516Z,32.81
2019-01-20T13:55:39.990Z,32.78
2019-01-20T13:58:09.431Z,32.75
2019-01-20T14:00:38.933Z,32.69
2019-01-20T14:03:08.564Z,32.61
2019-01-20T14:05:37.936Z,32.52
2019-01-20T14:08:07.566Z,32.44
2019-01-20T14:10:37.026Z,32.35
2019-01-20T14:13:06.492Z,32.28
2019-01-20T14:15:35.906Z,32.14
2019-01-20T14:18:05.488Z,32.08
2019-01-20T14:20:34.919Z,31.97
2019-01-20T14:23:04.441Z,31.87
2019-01-20T14:25:33.997Z,31.79
2019-01-20T14:28:03.445Z,31.70
2019-01-20T14:30:32.977Z,31.61
2019-01-20T14:33:02.488Z,31.53
2019-01-20T14:35:31.913Z,31.44
2019-01-20T14:38:01.338Z,31.37
2019-01-20T14:40:30.761Z,31.31
2019-01-20T14:43:00.153Z,31.28
2019-01-20T14:45:29.765Z,31.24
2019-01-20T14:47:59.216Z,31.20
2019-01-20T14:50:29.102Z,31.17
2019-01-20T14:52:58.519Z,31.16
2019-01-20T14:55:27.933Z,31.11
2019-01-20T14:57:57.364Z,31.10
2019-01-20T15:00:32.425Z,31.05
2019-01-20T15:03:01.858Z,31.04
2019-01-20T15:05:31.445Z,31.00
2019-01-20T15:08:01.048Z,30.94
2019-01-20T15:10:30.822Z,30.93
2019-01-20T15:13:00.227Z,30.87
2019-01-20T15:15:32.301Z,30.78
2019-01-20T15:18:01.683Z,30.68
2019-01-20T15:20:31.154Z,31.34
2019-01-20T15:23:00.562Z,32.13
2019-01-20T15:25:29.960Z,32.38
2019-01-20T15:27:59.337Z,32.47
2019-01-20T15:30:30.268Z,32.47
2019-01-20T15:33:00.969Z,32.49
2019-01-20T15:35:30.351Z,32.47
2019-01-20T15:37:59.807Z,32.58
2019-01-20T15:40:29.622Z,32.54
2019-01-20T15:42:59.014Z,32.53
2019-01-20T15:45:28.446Z,32.48
2019-01-20T15:47:57.840Z,32.41
2019-01-20T15:50:29.401Z,32.37
2019-01-20T15:52:58.962Z,32.37
2019-01-20T15:55:28.376Z,32.35
2019-01-20T15:57:57.980Z,32.32
2019-01-20T16:00:29.464Z,32.30
2019-01-20T16:02:59.416Z,32.31
2019-01-20T16:05:29.612Z,32.28
2019-01-20T16:07:59.215Z,32.23
2019-01-20T16:10:28.610Z,32.14
2019-01-20T16:12:58.007Z,32.04
2019-01-20T16:15:38.064Z,31.99
2019-01-20T16:18:07.635Z,31.88
2019-01-20T16:20:37.008Z,31.78
2019-01-20T16:23:08.217Z,31.66
2019-01-20T16:25:38.623Z,31.55
2019-01-20T16:28:09.748Z,31.43
2019-01-20T16:30:40.908Z,31.39
2019-01-20T16:33:10.627Z,31.32
2019-01-20T16:35:40.019Z,31.21
2019-01-20T16:38:11.068Z,31.13
2019-01-20T16:40:40.678Z,31.01
2019-01-20T16:43:10.038Z,30.96
2019-01-20T16:45:44.269Z,30.86
2019-01-20T16:48:13.935Z,30.76
2019-01-20T16:50:43.308Z,30.67
2019-01-20T16:53:12.798Z,30.63
2019-01-20T16:55:42.234Z,30.54
2019-01-20T16:58:11.830Z,30.50
2019-01-20T17:00:43.484Z,30.42
2019-01-20T17:03:13.018Z,30.31
2019-01-20T17:05:42.387Z,30.23
2019-01-20T17:08:12.131Z,30.17
2019-01-20T17:10:43.002Z,30.09
2019-01-20T17:13:12.960Z,30.02
2019-01-20T17:15:46.471Z,29.97
2019-01-20T17:18:16.869Z,29.87
2019-01-20T17:20:46.582Z,29.80
2019-01-20T17:23:16.420Z,29.83
2019-01-20T17:25:46.001Z,29.84
2019-01-20T17:28:15.405Z,29.83
2019-01-20T17:30:45.106Z,29.80
2019-01-20T17:33:15.272Z,29.74
2019-01-20T17:35:44.710Z,29.65
2019-01-20T17:38:14.181Z,29.64
2019-01-20T17:40:43.589Z,29.57
2019-01-20T17:43:13.038Z,29.53
2019-01-20T17:45:48.533Z,29.51
2019-01-20T17:48:15.478Z,29.43
2019-01-20T17:50:45.792Z,29.37
2019-01-20T17:53:15.536Z,29.39
2019-01-20T17:55:44.957Z,29.36
2019-01-20T17:58:14.354Z,29.30
2019-01-20T18:00:49.526Z,29.25
2019-01-20T18:03:19.039Z,29.20
2019-01-20T18:05:48.621Z,29.13
2019-01-20T18:08:18.131Z,29.07
2019-01-20T18:10:47.545Z,29.04
2019-01-20T18:13:16.951Z,29.01
2019-01-20T18:15:46.373Z,28.93
2019-01-20T18:18:15.883Z,28.88
2019-01-20T18:20:45.446Z,28.80
2019-01-20T18:23:14.865Z,28.52
2019-01-20T18:25:44.343Z,28.31
2019-01-20T18:28:13.803Z,28.05
2019-01-20T18:30:43.260Z,27.98
2019-01-20T18:33:12.679Z,27.79
2019-01-20T18:35:42.244Z,27.72
2019-01-20T18:38:11.768Z,27.53
2019-01-20T18:40:41.167Z,27.28
2019-01-20T18:43:10.640Z,27.17
2019-01-20T18:45:40.053Z,26.98
2019-01-20T18:48:09.448Z,26.86
2019-01-20T18:50:39.420Z,26.78
2019-01-20T18:53:08.818Z,26.58
2019-01-20T18:55:38.574Z,26.34
2019-01-20T18:58:08.430Z,26.24
2019-01-20T19:00:46.805Z,26.15
2019-01-20T19:03:16.274Z,25.89
2019-01-20T19:05:45.708Z,25.90
2019-01-20T19:08:15.082Z,25.77
2019-01-20T19:10:44.506Z,25.66
2019-01-20T19:13:13.904Z,25.55
2019-01-20T19:15:43.385Z,25.54
2019-01-20T19:18:18.915Z,25.49
2019-01-20T19:20:43.979Z,25.41
2019-01-20T19:23:13.437Z,25.44
2019-01-20T19:25:42.849Z,25.57
2019-01-20T19:28:12.264Z,25.69
2019-01-20T19:30:41.679Z,25.61
2019-01-20T19:33:11.220Z,25.61
2019-01-20T19:35:40.610Z,25.59
2019-01-20T19:38:10.045Z,25.46
2019-01-20T19:40:39.499Z,25.52
2019-01-20T19:43:08.907Z,25.18
2019-01-20T19:45:38.514Z,25.08
2019-01-20T19:48:15.675Z,24.91
2019-01-20T19:50:39.234Z,24.88
2019-01-20T19:53:08.629Z,24.94
2019-01-20T19:55:38.295Z,24.91
2019-01-20T19:58:07.795Z,24.86
2019-01-20T20:00:37.296Z,24.78
2019-01-20T20:03:06.744Z,24.71
2019-01-20T20:05:36.163Z,24.46
2019-01-20T20:08:06.063Z,24.31
2019-01-20T20:10:35.601Z,24.23
2019-01-20T20:13:05.081Z,24.25
2019-01-20T20:15:34.539Z,24.56
2019-01-20T20:18:04.069Z,24.71
2019-01-20T20:20:33.479Z,25.81
2019-01-20T20:23:03.121Z,25.68
2019-01-20T20:25:32.653Z,25.64
2019-01-20T20:28:05.182Z,25.79
2019-01-20T20:30:36.832Z,25.75
2019-01-20T20:33:07.296Z,25.65
2019-01-20T20:35:36.940Z,25.44
2019-01-20T20:38:06.540Z,25.17
2019-01-20T20:40:35.951Z,25.14
2019-01-20T20:43:05.396Z,25.14
2019-01-20T20:45:34.799Z,25.04
2019-01-20T20:48:04.335Z,24.78
2019-01-20T20:50:33.773Z,24.96
2019-01-20T20:53:03.279Z,25.06
2019-01-20T20:55:32.709Z,25.20
2019-01-20T20:58:02.197Z,25.58
2019-01-20T21:00:52.355Z,26.11
2019-01-20T21:03:28.341Z,27.01
2019-01-20T21:05:57.743Z,27.74
2019-01-20T21:08:27.304Z,28.59
2019-01-20T21:10:56.863Z,29.02
2019-01-20T21:13:26.242Z,29.22
2019-01-20T21:15:55.653Z,29.80
2019-01-20T21:18:25.073Z,30.66
2019-01-20T21:20:54.489Z,30.88
2019-01-20T21:23:23.882Z,30.39
2019-01-20T21:25:54.334Z,29.88
2019-01-20T21:28:23.728Z,29.13
2019-01-20T21:30:53.245Z,28.96
2019-01-20T21:33:22.683Z,28.60
2019-01-20T21:35:52.121Z,28.12
2019-01-20T21:38:21.587Z,27.64
2019-01-20T21:40:51.129Z,27.11
2019-01-20T21:43:20.646Z,26.54
2019-01-20T21:45:50.160Z,26.08
2019-01-20T21:48:19.633Z,25.63
2019-01-20T21:50:49.062Z,25.06
2019-01-20T21:53:18.553Z,24.90
2019-01-20T21:55:47.961Z,25.55
2019-01-20T21:58:18.302Z,25.44
2019-01-20T22:00:47.697Z,25.09
2019-01-20T22:03:17.096Z,24.82
2019-01-20T22:05:46.495Z,24.54
2019-01-20T22:08:15.922Z,24.28
2019-01-20T22:10:45.302Z,24.01
2019-01-20T22:13:14.847Z,23.78
2019-01-20T22:15:44.236Z,23.55
2019-01-20T22:18:13.619Z,23.30
2019-01-20T22:20:43.133Z,23.14
2019-01-20T22:23:12.552Z,23.01
2019-01-20T22:25:42.017Z,22.79
2019-01-20T22:28:11.691Z,22.60
2019-01-20T22:30:41.352Z,22.37
2019-01-20T22:33:10.727Z,22.20
2019-01-20T22:35:40.164Z,22.04
2019-01-20T22:38:09.537Z,21.85
2019-01-20T22:40:38.956Z,21.68
2019-01-20T22:43:08.414Z,21.52
2019-01-20T22:45:37.783Z,21.38
2019-01-20T22:48:07.992Z,21.21
2019-01-20T22:50:37.410Z,21.03
2019-01-20T22:53:06.842Z,20.89
2019-01-20T22:55:36.214Z,20.77
2019-01-20T22:58:05.754Z,20.65
2019-01-20T23:00:49.981Z,20.49
2019-01-20T23:03:19.727Z,20.36
2019-01-20T23:05:51.510Z,20.30
2019-01-20T23:08:21.084Z,20.13
2019-01-20T23:10:50.499Z,20.01
2019-01-20T23:13:19.913Z,19.98
2019-01-20T23:15:49.321Z,20.19
2019-01-20T23:18:18.727Z,20.18
2019-01-20T23:20:48.089Z,20.16
2019-01-20T23:23:17.475Z,20.01
2019-01-20T23:25:46.977Z,19.89
2019-01-20T23:28:16.406Z,19.78
2019-01-20T23:30:45.780Z,19.62
2019-01-20T23:33:15.199Z,19.49
2019-01-20T23:35:44.574Z,19.32
2019-01-20T23:38:13.953Z,19.19
2019-01-20T23:40:43.388Z,19.14
2019-01-20T23:43:12.759Z,19.05
2019-01-20T23:45:42.176Z,18.93
2019-01-20T23:48:11.576Z,18.80
2019-01-20T23:50:40.925Z,18.70
2019-01-20T23:53:10.379Z,18.62
2019-01-20T23:55:39.754Z,18.51
2019-01-20T23:58:09.113Z,18.40
